Time;durP1;ratioP1;P1;durP2;ratioP2;P2;SDS_P1;SDS_P2;PMS_P1;PMS_P2;Temp;Humidity;BMP_temperature;BMP_pressure;BME280_temperature;BME280_humidity;BME280_pressure;Samples;Min_cycle;Max_cycle;Signal;HPM_P1;HPM_P2
2021/07/05 00:00:21;;;;;;;9.27;7.53;;;17.50;99.90;;;;;;4991390;28;20474;-33
2021/07/05 00:02:47;;;;;;;8.52;7.72;;;17.50;99.90;;;;;;4991678;28;20022;-33
2021/07/05 00:05:13;;;;;;;8.85;8.05;;;17.50;99.90;;;;;;4992383;28;20026;-33
2021/07/05 00:07:42;;;;;;;9.35;8.45;;;17.50;99.90;;;;;;4991763;28;20088;-33
2021/07/05 00:10:11;;;;;;;8.02;7.32;;;17.50;99.90;;;;;;4991557;28;20030;-33
2021/07/05 00:12:38;;;;;;;9.40;8.50;;;17.50;99.90;;;;;;4992133;28;20519;-32
2021/07/05 00:15:05;;;;;;;8.98;8.18;;;17.50;99.90;;;;;;4990544;28;20015;-33
2021/07/05 00:17:31;;;;;;;11.05;8.32;;;17.50;99.90;;;;;;4991956;28;20034;-32
2021/07/05 00:19:57;;;;;;;9.88;8.88;;;17.60;99.90;;;;;;4990535;28;20022;-33
2021/07/05 00:22:23;;;;;;;8.32;7.63;;;17.60;99.90;;;;;;4991709;28;20050;-33
2021/07/05 00:24:49;;;;;;;9.05;8.23;;;17.60;99.90;;;;;;4991420;28;20080;-32
2021/07/05 00:27:14;;;;;;;8.90;8.13;;;17.60;99.90;;;;;;4991521;28;20018;-32
2021/07/05 00:29:40;;;;;;;8.38;7.57;;;17.70;99.90;;;;;;4990942;28;20544;-33
2021/07/05 00:32:06;;;;;;;7.93;7.32;;;17.70;99.90;;;;;;4991179;28;20034;-32
2021/07/05 00:34:31;;;;;;;8.85;8.02;;;17.70;99.90;;;;;;4992469;28;20028;-32
2021/07/05 00:36:57;;;;;;;9.35;7.57;;;17.70;99.90;;;;;;4990605;28;20450;-33
2021/07/05 00:39:22;;;;;;;8.55;7.75;;;17.70;99.90;;;;;;4991939;28;20385;-32
2021/07/05 00:41:48;;;;;;;8.68;7.43;;;17.70;99.90;;;;;;4990874;28;20780;-33
2021/07/05 00:44:14;;;;;;;7.60;7.00;;;17.70;99.90;;;;;;4990691;28;20053;-33
2021/07/05 00:46:39;;;;;;;7.80;7.13;;;17.70;99.90;;;;;;4991169;28;20530;-33
2021/07/05 00:49:05;;;;;;;8.18;7.22;;;17.80;99.90;;;;;;4991086;28;20468;-32
2021/07/05 00:51:31;;;;;;;7.88;7.18;;;17.80;99.90;;;;;;4991202;28;20018;-32
2021/07/05 00:53:57;;;;;;;7.35;6.68;;;17.80;99.90;;;;;;4989613;28;20032;-33
2021/07/05 00:56:23;;;;;;;6.97;6.30;;;17.90;99.90;;;;;;4990242;28;20113;-33
2021/07/05 00:58:48;;;;;;;6.63;6.13;;;17.90;99.90;;;;;;4990633;28;20019;-32
2021/07/05 01:01:16;;;;;;;6.90;6.20;;;17.90;99.90;;;;;;4991027;28;20023;-33
2021/07/05 01:03:42;;;;;;;7.03;6.32;;;17.90;99.90;;;;;;4987112;28;20426;-33
2021/07/05 01:06:07;;;;;;;6.30;5.80;;;17.90;99.90;;;;;;4991316;28;20481;-33
2021/07/05 01:08:33;;;;;;;6.75;6.18;;;18.00;99.90;;;;;;4991035;28;20039;-32
2021/07/05 01:10:59;;;;;;;6.40;5.80;;;18.00;99.90;;;;;;4989799;28;20042;-33
2021/07/05 01:13:24;;;;;;;6.10;5.50;;;18.00;99.90;;;;;;4991088;28;20037;-33
2021/07/05 01:15:50;;;;;;;6.88;5.70;;;18.00;99.90;;;;;;4990456;28;20117;-33
2021/07/05 01:18:15;;;;;;;5.35;4.82;;;18.00;99.90;;;;;;4990002;28;20030;-33
2021/07/05 01:20:42;;;;;;;4.97;4.57;;;18.00;99.90;;;;;;4990600;28;20109;-33
2021/07/05 01:23:08;;;;;;;5.07;4.60;;;18.00;99.90;;;;;;4990438;28;20027;-33
2021/07/05 01:25:36;;;;;;;5.10;4.60;;;18.00;99.90;;;;;;4990689;28;20438;-33
2021/07/05 01:28:03;;;;;;;4.30;3.88;;;18.00;99.90;;;;;;4990058;28;20391;-32
2021/07/05 01:30:29;;;;;;;5.13;4.15;;;18.00;99.90;;;;;;4990977;28;20034;-33
2021/07/05 01:32:59;;;;;;;4.72;3.92;;;18.00;99.90;;;;;;4989111;28;20010;-33
2021/07/05 01:35:24;;;;;;;4.25;3.85;;;18.00;99.90;;;;;;4991122;28;20500;-33
2021/07/05 01:37:50;;;;;;;4.50;4.10;;;18.00;99.90;;;;;;4990215;28;20030;-32
2021/07/05 01:40:19;;;;;;;7.05;3.78;;;18.00;99.90;;;;;;4990383;28;20045;-32
2021/07/05 01:42:58;;;;;;;4.00;3.65;;;18.00;99.90;;;;;;4990106;28;20559;-32
2021/07/05 01:45:27;;;;;;;3.97;3.60;;;18.00;99.90;;;;;;4991066;28;20010;-43
2021/07/05 01:47:52;;;;;;;4.40;4.10;;;17.90;99.90;;;;;;4989315;28;20022;-32
2021/07/05 01:50:22;;;;;;;4.90;4.40;;;17.90;99.90;;;;;;4990272;28;20026;-33
2021/07/05 01:52:49;;;;;;;4.78;4.30;;;17.80;99.90;;;;;;4989578;28;20014;-33
2021/07/05 01:55:15;;;;;;;4.65;3.90;;;17.80;99.90;;;;;;4988979;28;20022;-33
2021/07/05 01:57:41;;;;;;;4.40;4.00;;;17.70;99.90;;;;;;4990503;28;20390;-32
2021/07/05 02:00:16;;;;;;;4.07;3.78;;;17.60;99.90;;;;;;4989284;28;20822;-33
2021/07/05 02:02:44;;;;;;;4.05;3.58;;;17.60;99.90;;;;;;4990187;28;20470;-33
2021/07/05 02:05:12;;;;;;;3.88;3.50;;;17.60;99.90;;;;;;4989332;28;20033;-33
2021/07/05 02:07:39;;;;;;;4.03;3.70;;;17.70;99.90;;;;;;4989603;28;20109;-32
2021/07/05 02:10:09;;;;;;;4.03;3.70;;;17.70;99.90;;;;;;4989703;28;20031;-32
2021/07/05 02:12:36;;;;;;;4.03;3.67;;;17.70;99.90;;;;;;4989621;28;20040;-32
2021/07/05 02:15:03;;;;;;;4.90;3.50;;;17.70;99.90;;;;;;4988030;28;20500;-32
2021/07/05 02:17:29;;;;;;;4.30;3.90;;;17.70;99.90;;;;;;4990811;28;20240;-32
2021/07/05 02:19:54;;;;;;;4.10;3.70;;;17.60;99.90;;;;;;4989092;28;20045;-32
2021/07/05 02:22:20;;;;;;;4.03;3.72;;;17.50;99.90;;;;;;4989912;28;20057;-33
2021/07/05 02:24:46;;;;;;;3.47;3.17;;;17.50;99.90;;;;;;4990350;28;20023;-33
2021/07/05 02:27:11;;;;;;;3.95;3.60;;;17.40;99.90;;;;;;4989421;28;20022;-32
2021/07/05 02:29:37;;;;;;;3.60;3.30;;;17.40;99.90;;;;;;4989528;28;20049;-33
2021/07/05 02:32:03;;;;;;;3.60;3.30;;;17.40;99.90;;;;;;4989081;28;20030;-33
2021/07/05 02:34:28;;;;;;;4.10;3.70;;;17.40;99.90;;;;;;4989981;28;20030;-32
2021/07/05 02:36:54;;;;;;;4.43;4.03;;;17.40;99.90;;;;;;4988435;28;20544;-32
2021/07/05 02:39:19;;;;;;;4.50;3.80;;;17.40;99.90;;;;;;4990209;28;20030;-33
2021/07/05 02:41:45;;;;;;;4.85;3.90;;;17.50;99.90;;;;;;4990306;28;20418;-33
2021/07/05 02:44:12;;;;;;;3.83;3.53;;;17.50;99.90;;;;;;4988931;28;20072;-33
2021/07/05 02:46:37;;;;;;;4.50;4.10;;;17.50;99.90;;;;;;4989732;28;20018;-32
2021/07/05 02:49:03;;;;;;;4.32;3.88;;;17.50;99.90;;;;;;4988665;28;20101;-32
2021/07/05 02:51:29;;;;;;;3.67;3.38;;;17.50;99.90;;;;;;4987840;28;20042;-32
2021/07/05 02:53:55;;;;;;;4.00;3.67;;;17.40;99.90;;;;;;4989285;28;20409;-32
2021/07/05 02:56:21;;;;;;;4.55;3.72;;;17.50;99.90;;;;;;4988267;28;20038;-33
2021/07/05 02:58:46;;;;;;;4.18;3.78;;;17.40;99.90;;;;;;4989456;28;20125;-33
2021/07/05 03:01:12;;;;;;;4.38;3.97;;;17.40;99.90;;;;;;4989224;28;20478;-32
2021/07/05 03:03:38;;;;;;;4.38;3.70;;;17.40;99.90;;;;;;4989396;28;20374;-32
2021/07/05 03:06:04;;;;;;;4.30;3.90;;;17.40;99.90;;;;;;4988866;28;20509;-32
2021/07/05 03:08:29;;;;;;;4.95;3.67;;;17.40;99.90;;;;;;4989587;28;20190;-32
2021/07/05 03:10:55;;;;;;;4.63;3.75;;;17.30;99.90;;;;;;4988462;28;20023;-32
2021/07/05 03:13:27;;;;;;;3.28;3.03;;;17.40;99.90;;;;;;4990439;28;20030;-32
2021/07/05 03:15:53;;;;;;;2.80;2.60;;;17.40;99.90;;;;;;4988681;28;20030;-32
2021/07/05 03:18:19;;;;;;;5.10;4.05;;;17.40;99.90;;;;;;4990570;28;20273;-32
2021/07/05 03:20:47;;;;;;;4.07;3.67;;;17.40;99.90;;;;;;4991965;28;20026;-33
2021/07/05 03:23:16;;;;;;;4.40;3.90;;;17.40;99.90;;;;;;4991866;28;20369;-33
2021/07/05 03:25:42;;;;;;;3.08;2.80;;;17.40;99.90;;;;;;4992961;28;20466;-32
2021/07/05 03:28:10;;;;;;;4.45;3.38;;;17.40;99.90;;;;;;4992476;28;20029;-32
2021/07/05 03:30:37;;;;;;;3.92;3.58;;;17.40;99.90;;;;;;4993322;28;20071;-32
2021/07/05 03:33:03;;;;;;;3.80;3.45;;;17.40;99.90;;;;;;4990959;28;20539;-32
2021/07/05 03:35:29;;;;;;;4.82;3.83;;;17.40;99.90;;;;;;4974148;28;20026;-32
2021/07/05 03:37:56;;;;;;;4.38;3.97;;;17.40;99.90;;;;;;4986307;28;20030;-32
2021/07/05 03:40:27;;;;;;;4.80;3.67;;;17.40;99.90;;;;;;4992596;28;20022;-32
2021/07/05 03:42:54;;;;;;;9.82;4.60;;;17.40;99.90;;;;;;4992752;28;20023;-32
2021/07/05 03:45:22;;;;;;;4.68;4.22;;;17.40;99.90;;;;;;4991541;28;20611;-32
2021/07/05 03:47:48;;;;;;;8.18;5.22;;;17.40;99.90;;;;;;4992650;28;20030;-32
2021/07/05 03:50:15;;;;;;;5.78;4.10;;;17.40;99.90;;;;;;4992175;28;20061;-32
2021/07/05 03:52:41;;;;;;;4.35;3.58;;;17.40;99.90;;;;;;4991636;28;20026;-32
2021/07/05 03:55:10;;;;;;;7.78;3.90;;;17.40;99.90;;;;;;4992445;28;20378;-34
2021/07/05 03:57:36;;;;;;;6.75;3.92;;;17.30;99.90;;;;;;4992017;28;20477;-34
2021/07/05 04:00:06;;;;;;;7.03;4.07;;;17.30;99.90;;;;;;4991482;28;20109;-34
2021/07/05 04:02:32;;;;;;;4.20;2.90;;;17.30;99.90;;;;;;4992352;28;20084;-34
2021/07/05 04:04:58;;;;;;;5.88;3.47;;;17.20;99.90;;;;;;4991779;28;20093;-34
2021/07/05 04:07:23;;;;;;;4.75;3.28;;;17.10;99.90;;;;;;4991468;28;20133;-34
2021/07/05 04:09:49;;;;;;;3.97;3.05;;;17.00;99.90;;;;;;4991961;28;20027;-34
2021/07/05 04:12:19;;;;;;;6.43;3.20;;;17.00;99.90;;;;;;4991774;28;20536;-34
2021/07/05 04:14:45;;;;;;;3.17;2.10;;;16.90;99.90;;;;;;4991129;28;20390;-35
2021/07/05 04:17:10;;;;;;;6.93;3.00;;;16.70;99.90;;;;;;4991806;28;20031;-38
2021/07/05 04:19:36;;;;;;;3.20;2.63;;;16.60;99.90;;;;;;4992218;28;20393;-34
2021/07/05 04:22:02;;;;;;;4.05;2.33;;;16.60;99.90;;;;;;4971270;28;20082;-34
2021/07/05 04:24:28;;;;;;;3.30;2.10;;;16.50;99.90;;;;;;4986125;28;20022;-34
2021/07/05 04:26:53;;;;;;;4.72;2.30;;;16.50;99.90;;;;;;4991978;28;20033;-34
2021/07/05 04:29:19;;;;;;;3.97;2.10;;;16.40;99.90;;;;;;4990804;28;20533;-34
2021/07/05 04:31:45;;;;;;;3.75;1.80;;;16.30;99.90;;;;;;4991352;28;20527;-34
2021/07/05 04:34:11;;;;;;;2.88;1.80;;;16.20;99.90;;;;;;4991410;28;20014;-34
2021/07/05 04:36:37;;;;;;;5.38;2.00;;;16.10;99.90;;;;;;4991340;28;20089;-34
2021/07/05 04:39:05;;;;;;;5.43;2.00;;;16.10;99.90;;;;;;4990963;28;20585;-34
2021/07/05 04:41:31;;;;;;;3.05;1.80;;;16.10;99.90;;;;;;4991151;28;20501;-34
2021/07/05 04:43:56;;;;;;;3.63;1.80;;;16.00;99.90;;;;;;4990697;28;20512;-31
2021/07/05 04:46:23;;;;;;;2.42;1.88;;;16.00;99.90;;;;;;4991075;28;20110;-33
2021/07/05 04:48:49;;;;;;;3.08;1.60;;;16.00;99.90;;;;;;4990749;28;20112;-32
2021/07/05 04:51:15;;;;;;;2.08;1.42;;;16.00;99.90;;;;;;4991054;28;20130;-33
2021/07/05 04:53:41;;;;;;;2.28;1.60;;;16.00;99.90;;;;;;4990963;28;20030;-33
2021/07/05 04:56:07;;;;;;;4.07;1.75;;;16.00;99.90;;;;;;4990088;28;20557;-33
2021/07/05 04:58:32;;;;;;;2.83;1.65;;;16.00;99.90;;;;;;4991474;28;20022;-33
2021/07/05 05:00:58;;;;;;;3.60;1.55;;;15.90;99.90;;;;;;4990488;28;20026;-34
2021/07/05 05:03:24;;;;;;;3.05;1.67;;;16.00;99.90;;;;;;4991303;28;20065;-34
2021/07/05 05:05:49;;;;;;;3.13;1.75;;;16.00;99.90;;;;;;4985290;28;20575;-33
2021/07/05 05:08:15;;;;;;;3.53;1.80;;;15.90;99.90;;;;;;4990188;28;20046;-33
2021/07/05 05:10:41;;;;;;;4.47;1.75;;;16.00;99.90;;;;;;4990261;28;20026;-33
2021/07/05 05:13:08;;;;;;;3.15;1.67;;;16.00;99.90;;;;;;4990881;28;20023;-31
2021/07/05 05:15:37;;;;;;;3.50;1.50;;;16.00;99.90;;;;;;4989540;28;20026;-31
2021/07/05 05:18:03;;;;;;;2.92;1.75;;;16.00;99.90;;;;;;4982288;28;20500;-31
2021/07/05 05:20:28;;;;;;;1.83;1.42;;;16.10;99.90;;;;;;4990923;28;20019;-31
2021/07/05 05:22:54;;;;;;;3.40;1.77;;;16.10;99.90;;;;;;4990259;28;20034;-31
2021/07/05 05:25:20;;;;;;;2.55;1.70;;;16.10;99.90;;;;;;4989789;28;20048;-31
2021/07/05 05:27:47;;;;;;;3.42;1.95;;;16.10;99.90;;;;;;4990677;28;20398;-31
2021/07/05 05:30:16;;;;;;;3.22;2.08;;;16.20;99.90;;;;;;4990420;28;20021;-31
2021/07/05 05:32:43;;;;;;;3.85;2.10;;;16.20;99.90;;;;;;4979786;28;20473;-31
2021/07/05 05:35:13;;;;;;;3.30;2.00;;;16.20;99.90;;;;;;4990179;28;20030;-32
2021/07/05 05:37:41;;;;;;;2.85;2.10;;;16.20;99.90;;;;;;4990517;28;20034;-31
2021/07/05 05:40:07;;;;;;;3.20;2.08;;;16.20;99.90;;;;;;4989615;28;20417;-30
2021/07/05 05:42:33;;;;;;;3.25;2.10;;;16.20;99.90;;;;;;4990117;28;20410;-31
2021/07/05 05:44:58;;;;;;;3.17;2.10;;;16.20;99.90;;;;;;4989641;28;20021;-33
2021/07/05 05:47:24;;;;;;;3.33;2.10;;;16.30;99.90;;;;;;4990222;28;20366;-33
2021/07/05 05:49:50;;;;;;;2.50;1.77;;;16.30;99.90;;;;;;4990895;28;20484;-33
2021/07/05 05:52:15;;;;;;;3.67;3.30;;;16.20;99.90;;;;;;4989547;28;20107;-32
2021/07/05 05:54:41;;;;;;;3.22;2.10;;;16.30;99.90;;;;;;4990051;28;20029;-32
2021/07/05 05:57:29;;;;;;;3.40;2.25;;;16.20;99.90;;;;;;4989777;28;20037;-32
2021/07/05 05:59:56;;;;;;;2.58;2.00;;;16.30;99.90;;;;;;4989666;28;20018;-33
2021/07/05 06:02:22;;;;;;;2.72;2.30;;;16.20;99.90;;;;;;4989884;28;20105;-31
2021/07/05 06:04:47;;;;;;;3.35;2.17;;;16.30;99.90;;;;;;4990458;28;20105;-30
2021/07/05 06:07:13;;;;;;;3.65;2.30;;;16.30;99.90;;;;;;4989193;28;20042;-33
2021/07/05 06:09:38;;;;;;;2.88;2.08;;;16.40;99.90;;;;;;4990278;28;20417;-34
2021/07/05 06:12:04;;;;;;;3.63;2.33;;;16.40;99.90;;;;;;4990195;28;20015;-33
2021/07/05 06:14:29;;;;;;;3.85;2.80;;;16.50;99.90;;;;;;4989753;28;20120;-33
2021/07/05 06:16:55;;;;;;;6.93;3.47;;;16.50;99.90;;;;;;4989672;28;20697;-33
2021/07/05 06:19:21;;;;;;;5.57;3.17;;;16.50;99.90;;;;;;4990250;28;20050;-33
2021/07/05 06:21:46;;;;;;;4.57;2.90;;;16.40;99.90;;;;;;4989059;28;20381;-32
2021/07/05 06:24:12;;;;;;;6.25;3.53;;;16.40;99.90;;;;;;4989610;28;20023;-33
2021/07/05 06:26:37;;;;;;;3.53;2.63;;;16.30;99.90;;;;;;4990544;28;20526;-33
2021/07/05 06:29:03;;;;;;;5.93;3.78;;;16.30;99.90;;;;;;4989117;28;20029;-32
2021/07/05 06:31:29;;;;;;;5.40;3.42;;;16.30;99.90;;;;;;4990498;28;20034;-33
2021/07/05 06:33:54;;;;;;;6.68;4.20;;;16.30;99.90;;;;;;4989159;28;20465;-33
2021/07/05 06:36:20;;;;;;;5.18;3.80;;;16.40;99.90;;;;;;4989222;28;20085;-33
2021/07/05 06:38:46;;;;;;;6.85;4.00;;;16.40;99.90;;;;;;4989935;28;20469;-32
2021/07/05 06:41:11;;;;;;;6.60;3.88;;;16.40;99.90;;;;;;4988967;28;20076;-32
2021/07/05 06:43:37;;;;;;;5.97;3.75;;;16.40;99.90;;;;;;4989974;28;20022;-32
2021/07/05 06:46:02;;;;;;;6.85;3.60;;;16.50;99.90;;;;;;4989440;28;20113;-32
2021/07/05 06:48:28;;;;;;;5.65;3.88;;;16.50;99.90;;;;;;4988994;28;20058;-32
2021/07/05 06:50:53;;;;;;;6.68;3.60;;;16.70;99.90;;;;;;4989134;28;20351;-32
2021/07/05 06:53:19;;;;;;;4.72;3.47;;;16.70;99.90;;;;;;4992716;28;20038;-32
2021/07/05 06:55:44;;;;;;;17.30;4.97;;;16.70;99.90;;;;;;4992968;28;20037;-31
2021/07/05 06:58:10;;;;;;;6.03;3.88;;;16.80;99.90;;;;;;4992545;28;20114;-31
2021/07/05 07:00:36;;;;;;;7.97;4.70;;;16.80;99.90;;;;;;4993954;28;20042;-31
2021/07/05 07:03:04;;;;;;;7.22;4.70;;;16.80;99.90;;;;;;4992548;28;20033;-32
2021/07/05 07:05:33;;;;;;;8.35;4.55;;;16.80;99.90;;;;;;4992741;28;20018;-31
2021/07/05 07:07:59;;;;;;;6.53;4.60;;;16.80;99.90;;;;;;4993175;28;20046;-31
2021/07/05 07:10:26;;;;;;;7.82;4.30;;;16.90;99.90;;;;;;4991037;28;20018;-31
2021/07/05 07:12:54;;;;;;;7.60;4.20;;;16.90;99.90;;;;;;4991851;28;20026;-31
2021/07/05 07:15:23;;;;;;;8.57;4.10;;;17.00;99.90;;;;;;4992938;28;20030;-31
2021/07/05 07:18:10;;;;;;;10.40;4.53;;;17.10;99.90;;;;;;4992340;28;20064;-32
2021/07/05 07:20:35;;;;;;;7.53;4.40;;;17.10;99.90;;;;;;4993260;28;20467;-32
2021/07/05 07:23:01;;;;;;;9.52;4.80;;;17.20;99.90;;;;;;4992829;28;20113;-32
2021/07/05 07:25:26;;;;;;;10.07;6.35;;;17.20;99.90;;;;;;4992595;28;20022;-32
2021/07/05 07:27:52;;;;;;;7.65;4.78;;;17.30;99.90;;;;;;4993093;28;20390;-32
2021/07/05 07:30:21;;;;;;;9.68;5.50;;;17.30;99.90;;;;;;4992384;28;20343;-31
2021/07/05 07:32:47;;;;;;;6.72;3.42;;;17.30;99.90;;;;;;4992974;28;20085;-32
2021/07/05 07:35:15;;;;;;;11.52;5.28;;;17.40;99.90;;;;;;4992541;28;20010;-32
2021/07/05 07:37:44;;;;;;;9.48;4.40;;;17.50;99.90;;;;;;4992365;28;20122;-32
2021/07/05 07:42:38;;;;;;;5.53;4.05;;;17.60;99.90;;;;;;4993526;28;20034;-35
2021/07/05 07:45:04;;;;;;;9.35;4.35;;;17.60;99.90;;;;;;4991247;28;20027;-32
2021/07/05 07:47:30;;;;;;;7.78;4.22;;;17.60;99.90;;;;;;4992109;28;20381;-31
2021/07/05 07:49:58;;;;;;;6.22;3.83;;;17.70;99.90;;;;;;4992330;28;20041;-31
2021/07/05 07:52:23;;;;;;;6.72;4.40;;;17.80;99.90;;;;;;4992265;28;20034;-31
2021/07/05 07:54:49;;;;;;;7.28;4.47;;;17.90;99.90;;;;;;4992638;28;20371;-32
2021/07/05 07:57:17;;;;;;;9.25;4.93;;;18.00;99.90;;;;;;4991515;28;20504;-32
2021/07/05 07:59:44;;;;;;;10.05;4.93;;;18.10;99.90;;;;;;4991847;28;20560;-32
2021/07/05 08:02:13;;;;;;;9.43;4.25;;;18.30;99.90;;;;;;4991783;28;20038;-32
2021/07/05 08:04:39;;;;;;;7.40;4.32;;;18.40;99.90;;;;;;4992397;28;20351;-32
2021/07/05 08:07:08;;;;;;;9.57;4.50;;;18.40;99.90;;;;;;4991086;28;20509;-31
2021/07/05 08:09:34;;;;;;;9.32;4.70;;;18.50;99.90;;;;;;4991786;28;20056;-32
2021/07/05 08:12:00;;;;;;;5.93;3.58;;;18.50;99.90;;;;;;4991372;28;20579;-32
2021/07/05 08:14:25;;;;;;;6.53;3.50;;;18.50;99.90;;;;;;4991559;28;20034;-30
2021/07/05 08:16:51;;;;;;;7.47;4.53;;;18.50;99.90;;;;;;4991543;28;20426;-30
2021/07/05 08:19:16;;;;;;;8.20;4.68;;;18.60;99.90;;;;;;4991665;28;20026;-30
2021/07/05 08:21:42;;;;;;;8.38;4.50;;;18.60;99.90;;;;;;4991017;28;20117;-30
2021/07/05 08:24:08;;;;;;;6.80;3.45;;;18.80;99.90;;;;;;4991862;28;20071;-31
2021/07/05 08:26:34;;;;;;;7.85;4.15;;;18.90;99.90;;;;;;4990936;28;20030;-30
2021/07/05 08:29:00;;;;;;;9.32;4.53;;;19.00;99.90;;;;;;4991500;28;20053;-30
2021/07/05 08:31:26;;;;;;;7.18;4.13;;;19.10;99.90;;;;;;4991402;28;20015;-31
2021/07/05 08:33:51;;;;;;;8.10;3.90;;;19.30;99.90;;;;;;4990866;28;20026;-34
2021/07/05 08:36:18;;;;;;;8.30;4.10;;;19.40;99.90;;;;;;4991625;28;20034;-30
2021/07/05 08:38:45;;;;;;;8.85;4.53;;;19.40;99.90;;;;;;4990499;28;20117;-31
2021/07/05 08:41:11;;;;;;;7.38;4.43;;;19.40;99.90;;;;;;4991227;28;20084;-31
2021/07/05 08:43:42;;;;;;;7.53;3.42;;;19.40;99.90;;;;;;4991539;28;20425;-31
2021/07/05 08:46:08;;;;;;;7.77;4.37;;;19.50;99.90;;;;;;4991417;28;20025;-31
2021/07/05 08:48:36;;;;;;;5.82;3.17;;;19.50;99.90;;;;;;4990904;28;20031;-30
2021/07/05 08:51:04;;;;;;;8.35;3.75;;;19.50;99.90;;;;;;4987128;28;20053;-30
2021/07/05 08:53:30;;;;;;;4.95;3.72;;;19.50;99.90;;;;;;4990744;28;20521;-31
2021/07/05 08:55:56;;;;;;;5.25;3.17;;;19.40;99.90;;;;;;4990196;28;20022;-31
2021/07/05 08:58:22;;;;;;;5.65;3.42;;;19.40;99.90;;;;;;4990884;28;20032;-30
2021/07/05 09:00:47;;;;;;;5.65;3.35;;;19.40;99.90;;;;;;4991352;28;20018;-31
2021/07/05 09:03:13;;;;;;;8.95;4.30;;;19.40;99.90;;;;;;4990189;28;20742;-31
2021/07/05 09:05:38;;;;;;;8.15;3.80;;;19.40;99.90;;;;;;4991614;28;20054;-31
2021/07/05 09:08:09;;;;;;;5.95;3.97;;;19.40;99.90;;;;;;4990126;28;20056;-31
2021/07/05 09:10:53;;;;;;;7.35;3.92;;;19.50;99.90;;;;;;4990271;28;20027;-31
2021/07/05 09:13:24;;;;;;;5.97;4.00;;;19.50;99.90;;;;;;4991091;28;20480;-30
2021/07/05 09:15:52;;;;;;;6.45;4.22;;;19.60;99.90;;;;;;4989361;28;20027;-31
2021/07/05 09:18:30;;;;;;;6.72;3.78;;;19.60;99.90;;;;;;4990588;28;20038;-32
2021/07/05 09:21:16;;;;;;;6.95;4.13;;;19.60;99.90;;;;;;4990818;28;20080;-32
2021/07/05 09:24:06;;;;;;;6.00;3.35;;;19.70;99.90;;;;;;4989980;28;20028;-31
2021/07/05 09:26:40;;;;;;;5.32;3.70;;;19.90;99.90;;;;;;4983638;28;20068;-31
2021/07/05 09:29:15;;;;;;;6.57;4.03;;;20.00;99.90;;;;;;4988982;28;20069;-31
2021/07/05 09:31:46;;;;;;;9.90;4.15;;;20.10;99.90;;;;;;4990274;28;20026;-32
2021/07/05 09:34:18;;;;;;;8.25;3.38;;;20.20;99.90;;;;;;4989920;28;20420;-33
2021/07/05 09:36:44;;;;;;;7.90;3.85;;;20.20;99.90;;;;;;4990590;28;20034;-34
2021/07/05 09:39:19;;;;;;;6.15;3.42;;;20.20;99.90;;;;;;4990462;28;20330;-33
2021/07/05 09:41:46;;;;;;;6.15;3.95;;;20.30;99.90;;;;;;4990533;28;20466;-34
2021/07/05 09:44:18;;;;;;;11.95;4.50;;;20.30;99.90;;;;;;4989462;28;20366;-34
2021/07/05 09:46:50;;;;;;;6.15;3.83;;;20.30;99.90;;;;;;4990111;28;20076;-34
2021/07/05 09:49:18;;;;;;;8.90;4.32;;;20.40;99.90;;;;;;4989730;28;20018;-34
2021/07/05 09:51:47;;;;;;;5.82;3.40;;;20.50;99.90;;;;;;4989536;28;20066;-34
2021/07/05 09:54:22;;;;;;;7.22;4.30;;;20.60;99.90;;;;;;4989856;28;20490;-34
2021/07/05 09:56:53;;;;;;;7.15;3.58;;;20.70;99.90;;;;;;4989347;28;20046;-34
2021/07/05 09:59:21;;;;;;;7.65;3.67;;;20.80;99.80;;;;;;4989249;28;20018;-34
2021/07/05 10:01:55;;;;;;;5.82;3.50;;;20.80;99.80;;;;;;4990110;28;20488;-33
2021/07/05 10:04:32;;;;;;;5.30;3.70;;;20.90;99.20;;;;;;4989816;28;20053;-32
2021/07/05 10:07:00;;;;;;;5.30;3.47;;;20.90;99.30;;;;;;4986544;28;20072;-32
2021/07/05 10:09:35;;;;;;;5.50;3.40;;;21.00;99.10;;;;;;4989633;28;20610;-32
2021/07/05 10:12:29;;;;;;;6.15;3.10;;;21.10;99.30;;;;;;4985925;28;20071;-32
2021/07/05 10:15:09;;;;;;;7.03;3.58;;;21.20;99.20;;;;;;4988877;28;20073;-32
2021/07/05 10:17:42;;;;;;;6.10;3.03;;;21.30;98.40;;;;;;4989301;28;20085;-32
2021/07/05 10:20:13;;;;;;;6.53;3.30;;;21.40;98.50;;;;;;4988944;28;20443;-32
2021/07/05 10:22:44;;;;;;;4.77;2.60;;;21.40;97.60;;;;;;4990303;28;20117;-32
2021/07/05 10:25:10;;;;;;;7.63;3.53;;;21.40;98.00;;;;;;4989721;28;20349;-32
2021/07/05 10:27:36;;;;;;;4.78;2.45;;;21.40;97.70;;;;;;4991165;28;20023;-32
2021/07/05 10:30:05;;;;;;;4.13;2.47;;;21.40;98.10;;;;;;4994158;28;20022;-32
2021/07/05 10:32:30;;;;;;;6.18;3.60;;;21.40;98.20;;;;;;4992492;28;20545;-32
2021/07/05 10:34:57;;;;;;;3.17;2.70;;;21.50;98.30;;;;;;4993059;28;20109;-32
2021/07/05 10:37:53;;;;;;;6.85;2.92;;;21.50;97.70;;;;;;4993851;28;20034;-32
2021/07/05 10:40:32;;;;;;;4.95;3.30;;;21.50;97.80;;;;;;4993244;28;20500;-36
2021/07/05 10:42:58;;;;;;;3.53;2.53;;;21.50;97.90;;;;;;4993120;28;20057;-36
2021/07/05 10:45:44;;;;;;;6.68;2.42;;;21.60;97.80;;;;;;4993995;28;20417;-36
2021/07/05 10:48:36;;;;;;;4.50;2.03;;;21.60;97.50;;;;;;4989332;28;20023;-35
2021/07/05 10:51:03;;;;;;;3.97;2.07;;;21.60;97.40;;;;;;4993034;28;20041;-35
2021/07/05 10:53:32;;;;;;;3.17;1.88;;;21.60;97.20;;;;;;4993787;28;20022;-35
2021/07/05 10:55:58;;;;;;;3.95;2.20;;;21.60;97.60;;;;;;4992438;28;20537;-35
2021/07/05 10:58:29;;;;;;;6.03;1.80;;;21.60;97.50;;;;;;4993595;28;20050;-35
2021/07/05 11:01:00;;;;;;;5.45;2.25;;;21.70;97.90;;;;;;4991465;28;20470;-35
2021/07/05 11:03:38;;;;;;;4.22;2.15;;;21.70;98.00;;;;;;4993016;28;20378;-34
2021/07/05 11:06:14;;;;;;;2.72;1.85;;;21.80;98.00;;;;;;4993036;28;20046;-34
2021/07/05 11:08:51;;;;;;;3.70;2.30;;;21.90;97.80;;;;;;4992061;28;20406;-33
2021/07/05 11:11:31;;;;;;;2.47;2.20;;;21.90;97.60;;;;;;4992451;28;20366;-34
2021/07/05 11:14:17;;;;;;;5.70;2.53;;;22.00;97.30;;;;;;4992359;28;20034;-42
2021/07/05 11:17:05;;;;;;;6.28;2.42;;;21.90;96.80;;;;;;4990971;28;20042;-33
2021/07/05 11:19:34;;;;;;;5.22;2.70;;;21.90;95.70;;;;;;4991859;28;20496;-33
2021/07/05 11:22:03;;;;;;;5.43;2.55;;;21.80;96.00;;;;;;4993150;28;20129;-33
2021/07/05 11:24:37;;;;;;;3.25;2.38;;;21.70;96.50;;;;;;4992568;28;20026;-34
2021/07/05 11:27:34;;;;;;;4.28;2.80;;;21.80;96.50;;;;;;4992693;28;20413;-33
2021/07/05 11:30:15;;;;;;;5.75;2.63;;;21.80;96.10;;;;;;4991946;28;20022;-33
2021/07/05 11:32:46;;;;;;;7.15;2.88;;;21.80;96.20;;;;;;4992392;28;20460;-33
2021/07/05 11:35:43;;;;;;;5.35;2.55;;;21.90;96.40;;;;;;4982440;28;20018;-34
2021/07/05 11:38:09;;;;;;;6.18;3.10;;;22.00;96.50;;;;;;4991273;28;20030;-34
2021/07/05 11:40:46;;;;;;;9.38;4.72;;;22.10;96.20;;;;;;4992362;28;20026;-34
2021/07/05 11:43:14;;;;;;;4.65;3.22;;;22.00;96.40;;;;;;4992353;28;20018;-34
2021/07/05 11:45:41;;;;;;;6.00;3.10;;;21.90;96.80;;;;;;4991925;28;20023;-34
2021/07/05 11:48:09;;;;;;;4.47;3.08;;;21.90;97.00;;;;;;4991766;28;20525;-33
2021/07/05 11:50:39;;;;;;;5.15;3.08;;;21.70;97.30;;;;;;4992125;28;20379;-34
2021/07/05 11:53:05;;;;;;;5.85;3.00;;;21.50;97.80;;;;;;4992168;28;20096;-34
2021/07/05 11:55:35;;;;;;;3.97;2.90;;;21.20;98.50;;;;;;4992256;28;20465;-32
2021/07/05 11:58:06;;;;;;;4.22;3.20;;;20.80;99.30;;;;;;4991378;28;20042;-32
2021/07/05 12:00:37;;;;;;;5.03;3.10;;;20.30;99.80;;;;;;4991594;28;20091;-32
2021/07/05 12:03:14;;;;;;;4.50;2.92;;;19.90;99.90;;;;;;4992472;28;20030;-34
2021/07/05 12:05:56;;;;;;;4.18;3.13;;;19.60;99.90;;;;;;4990629;28;20033;-34
2021/07/05 12:08:22;;;;;;;6.15;2.92;;;19.30;99.90;;;;;;4992276;28;20065;-34
2021/07/05 12:10:47;;;;;;;3.35;2.72;;;19.20;99.90;;;;;;4992466;28;20018;-34
2021/07/05 12:13:16;;;;;;;3.72;2.80;;;19.20;99.90;;;;;;4991561;28;20453;-34
2021/07/05 12:15:52;;;;;;;5.97;3.75;;;19.30;99.90;;;;;;4991371;28;20461;-34
2021/07/05 12:18:17;;;;;;;3.72;2.80;;;19.40;99.90;;;;;;4991807;28;20030;-34
2021/07/05 12:20:43;;;;;;;4.75;3.00;;;19.50;99.90;;;;;;4990819;28;20076;-34
2021/07/05 12:23:13;;;;;;;3.65;2.70;;;19.70;99.90;;;;;;4992461;28;20030;-34
2021/07/05 12:25:41;;;;;;;2.72;2.45;;;20.00;99.90;;;;;;4990759;28;20022;-34
2021/07/05 12:28:15;;;;;;;4.93;3.50;;;20.30;99.90;;;;;;4991534;28;20045;-33
2021/07/05 12:30:47;;;;;;;4.47;3.05;;;20.60;99.90;;;;;;4992045;28;20030;-33
2021/07/05 12:33:12;;;;;;;3.53;2.33;;;20.90;99.90;;;;;;4990962;28;20480;-33
2021/07/05 12:35:38;;;;;;;4.13;2.28;;;21.10;99.90;;;;;;4991035;28;20113;-33
2021/07/05 12:38:11;;;;;;;3.45;2.10;;;21.30;99.90;;;;;;4991008;28;20035;-33
2021/07/05 12:40:36;;;;;;;;;;;21.50;99.70;;;;;;4981703;28;20546;-33
2021/07/05 12:43:05;;;;;;;3.33;2.03;;;21.70;99.60;;;;;;4991177;28;19993;-33
2021/07/05 12:45:50;;;;;;;3.88;2.28;;;21.70;99.10;;;;;;4991499;28;20034;-35
2021/07/05 12:48:29;;;;;;;2.33;1.70;;;21.80;98.60;;;;;;4990642;28;20037;-33
2021/07/05 12:51:06;;;;;;;2.97;1.90;;;21.90;98.70;;;;;;4990577;28;20221;-33
2021/07/05 12:53:34;;;;;;;5.00;2.38;;;22.00;98.30;;;;;;4991070;28;20092;-33
2021/07/05 12:56:18;;;;;;;4.28;1.80;;;22.00;98.50;;;;;;4990692;28;20026;-33